createdAt,value
2022-12-12T00:00:25.153Z,-4.9
2022-12-12T00:01:27.158Z,-4.9
2022-12-12T00:02:29.201Z,-4.9
2022-12-12T00:03:31.314Z,-4.9
2022-12-12T00:04:33.164Z,-4.9
2022-12-12T00:05:36.170Z,-4.9
2022-12-12T00:06:40.158Z,-4.9
2022-12-12T00:07:43.159Z,-4.9
2022-12-12T00:08:45.165Z,-4.9
2022-12-12T00:09:47.155Z,-4.9
2022-12-12T00:10:49.162Z,-4.9
2022-12-12T00:11:51.184Z,-4.8
2022-12-12T00:12:53.195Z,-4.8
2022-12-12T00:13:55.171Z,-4.9
2022-12-12T00:14:57.205Z,-4.9
2022-12-12T00:17:01.175Z,-4.9
2022-12-12T00:18:03.175Z,-4.9
2022-12-12T00:19:05.176Z,-4.9
2022-12-12T00:20:07.169Z,-4.9
2022-12-12T00:21:09.164Z,-5
2022-12-12T00:22:11.171Z,-5
2022-12-12T00:23:13.207Z,-5
2022-12-12T00:24:15.166Z,-5
2022-12-12T00:25:17.167Z,-5
2022-12-12T00:26:19.176Z,-5
2022-12-12T00:27:22.195Z,-5
2022-12-12T00:28:24.198Z,-4.9
2022-12-12T00:29:26.165Z,-4.9
2022-12-12T00:30:28.201Z,-4.9
2022-12-12T00:31:30.311Z,-4.9
2022-12-12T00:32:32.186Z,-4.8
2022-12-12T00:33:34.179Z,-4.8
2022-12-12T00:34:36.191Z,-4.8
2022-12-12T00:35:40.376Z,-4.8
2022-12-12T00:36:42.182Z,-4.8
2022-12-12T00:37:44.170Z,-4.9
2022-12-12T00:38:46.179Z,-4.9
2022-12-12T00:39:48.206Z,-4.9
2022-12-12T00:40:50.219Z,-4.9
2022-12-12T00:41:52.190Z,-5
2022-12-12T00:42:54.174Z,-4.9
2022-12-12T00:43:56.183Z,-4.9
2022-12-12T00:44:58.191Z,-4.9
2022-12-12T00:46:00.339Z,-4.9
2022-12-12T00:47:15.955Z,-4.9
2022-12-12T00:48:04.187Z,-4.9
2022-12-12T00:49:06.186Z,-4.9
2022-12-12T00:50:22.004Z,-4.9
2022-12-12T00:51:10.188Z,-4.9
2022-12-12T00:52:12.196Z,-4.9
2022-12-12T00:53:14.184Z,-4.9
2022-12-12T00:54:16.196Z,-4.9
2022-12-12T00:55:18.165Z,-4.9
2022-12-12T00:56:20.191Z,-4.9
2022-12-12T00:57:22.196Z,-4.9
2022-12-12T00:58:25.194Z,-4.9
2022-12-12T00:59:27.191Z,-4.9
2022-12-12T01:00:29.191Z,-4.9
2022-12-12T01:01:31.281Z,-4.9
2022-12-12T01:02:33.237Z,-4.9
2022-12-12T01:03:36.241Z,-4.9
2022-12-12T01:04:40.194Z,-4.9
2022-12-12T01:05:42.250Z,-4.9
2022-12-12T01:06:45.194Z,-4.9
2022-12-12T01:07:47.274Z,-4.9
2022-12-12T01:08:49.238Z,-4.9
2022-12-12T01:09:51.200Z,-4.9
2022-12-12T01:10:53.194Z,-4.8
2022-12-12T01:11:55.213Z,-4.8
2022-12-12T01:12:57.221Z,-4.8
2022-12-12T01:13:59.230Z,-4.8
2022-12-12T01:15:01.193Z,-4.8
2022-12-12T01:16:03.235Z,-4.8
2022-12-12T01:17:05.220Z,-4.8
2022-12-12T01:18:07.202Z,-4.9
2022-12-12T01:19:09.209Z,-4.9
2022-12-12T01:20:11.198Z,-4.9
2022-12-12T01:21:13.208Z,-4.9
2022-12-12T01:22:15.219Z,-4.9
2022-12-12T01:23:17.201Z,-4.9
2022-12-12T01:24:19.209Z,-4.9
2022-12-12T01:25:21.232Z,-4.9
2022-12-12T01:26:23.209Z,-4.9
2022-12-12T01:27:25.208Z,-4.9
2022-12-12T01:28:27.402Z,-4.9
2022-12-12T01:29:29.418Z,-4.8
2022-12-12T01:30:31.231Z,-4.9
2022-12-12T01:31:33.235Z,-4.9
2022-12-12T01:33:08.382Z,-4.9
2022-12-12T01:34:08.423Z,-4.9
2022-12-12T01:35:08.391Z,-4.9
2022-12-12T01:36:08.382Z,-4.9
2022-12-12T01:37:08.384Z,-4.9
2022-12-12T01:38:08.386Z,-4.9
2022-12-12T01:39:08.445Z,-4.9
2022-12-12T01:40:08.400Z,-4.8
2022-12-12T01:41:08.381Z,-4.8
2022-12-12T01:42:08.380Z,-4.8
2022-12-12T01:43:08.383Z,-4.8
2022-12-12T01:44:08.380Z,-4.7
2022-12-12T01:45:08.431Z,-4.8
2022-12-12T01:46:08.503Z,-4.8
2022-12-12T01:47:08.385Z,-4.8
2022-12-12T01:48:09.212Z,-4.8
2022-12-12T01:49:12.214Z,-4.8
2022-12-12T01:50:14.261Z,-4.9
2022-12-12T01:51:16.261Z,-4.9
2022-12-12T01:52:18.223Z,-4.9
2022-12-12T01:53:34.000Z,-4.9
2022-12-12T01:54:23.223Z,-4.9
2022-12-12T01:55:25.271Z,-4.9
2022-12-12T01:56:27.228Z,-4.9
2022-12-12T01:57:29.227Z,-4.9
2022-12-12T01:58:31.230Z,-4.9
2022-12-12T01:59:33.230Z,-4.9
2022-12-12T02:00:36.380Z,-5
2022-12-12T02:01:40.348Z,-4.9
2022-12-12T02:02:42.234Z,-4.9
2022-12-12T02:03:45.218Z,-4.8
2022-12-12T02:04:47.232Z,-4.8
2022-12-12T02:05:49.287Z,-4.8
2022-12-12T02:06:51.241Z,-4.8
2022-12-12T02:07:53.271Z,-4.8
2022-12-12T02:08:55.235Z,-4.8
2022-12-12T02:09:57.231Z,-4.8
2022-12-12T02:10:59.453Z,-4.8
2022-12-12T02:12:01.251Z,-4.8
2022-12-12T02:13:03.234Z,-4.8
2022-12-12T02:14:05.231Z,-4.8
2022-12-12T02:15:07.240Z,-4.8
2022-12-12T02:16:09.347Z,-4.7
2022-12-12T02:17:11.277Z,-4.8
2022-12-12T02:18:13.243Z,-4.8
2022-12-12T02:19:15.245Z,-4.8
2022-12-12T02:20:17.244Z,-4.8
2022-12-12T02:21:19.240Z,-4.9
2022-12-12T02:22:21.257Z,-4.9
2022-12-12T02:23:24.259Z,-4.9
2022-12-12T02:24:26.382Z,-4.9
2022-12-12T02:25:28.247Z,-4.9
2022-12-12T02:26:30.293Z,-4.9
2022-12-12T02:27:32.249Z,-4.9
2022-12-12T02:28:34.247Z,-4.9
2022-12-12T02:29:36.282Z,-4.9
2022-12-12T02:30:39.451Z,-4.9
2022-12-12T02:31:41.315Z,-4.9
2022-12-12T02:32:43.251Z,-4.9
2022-12-12T02:33:45.252Z,-4.9
2022-12-12T02:34:47.260Z,-4.9
2022-12-12T02:35:49.252Z,-4.9
2022-12-12T02:36:51.288Z,-4.8
2022-12-12T02:37:53.250Z,-4.8
2022-12-12T02:38:55.252Z,-4.8
2022-12-12T02:39:57.251Z,-4.8
2022-12-12T02:40:59.250Z,-4.8
2022-12-12T02:42:01.281Z,-4.8
2022-12-12T02:43:03.256Z,-4.8
2022-12-12T02:44:05.257Z,-4.9
2022-12-12T02:45:07.259Z,-4.8
2022-12-12T02:46:09.262Z,-4.9
2022-12-12T02:47:11.281Z,-4.9
2022-12-12T02:48:13.261Z,-5
2022-12-12T02:49:15.261Z,-5
2022-12-12T02:50:17.264Z,-5
2022-12-12T02:51:19.264Z,-5
2022-12-12T02:52:21.293Z,-5
2022-12-12T02:53:23.263Z,-5
2022-12-12T02:54:25.293Z,-5
2022-12-12T02:55:27.262Z,-4.9
2022-12-12T02:56:29.265Z,-4.9
2022-12-12T02:57:31.321Z,-5
2022-12-12T02:58:33.263Z,-5
2022-12-12T02:59:36.289Z,-5
2022-12-12T03:00:40.311Z,-5
2022-12-12T03:01:42.384Z,-5.1
2022-12-12T03:02:44.294Z,-5
2022-12-12T03:03:46.275Z,-5
2022-12-12T03:04:49.267Z,-5
2022-12-12T03:05:51.266Z,-5
2022-12-12T03:06:53.271Z,-5
2022-12-12T03:07:56.334Z,-5
2022-12-12T03:08:58.277Z,-5
2022-12-12T03:10:00.280Z,-5
2022-12-12T03:11:03.283Z,-5
2022-12-12T03:12:05.279Z,-5
2022-12-12T03:13:07.276Z,-5.1
2022-12-12T03:14:09.283Z,-5
2022-12-12T03:15:11.834Z,-5
2022-12-12T03:16:13.351Z,-5.1
2022-12-12T03:17:15.280Z,-5.1
2022-12-12T03:18:17.729Z,-5.1
2022-12-12T03:19:19.283Z,-5.1
2022-12-12T03:20:21.279Z,-5.1
2022-12-12T03:21:23.304Z,-5.1
2022-12-12T03:22:25.283Z,-5
2022-12-12T03:23:27.302Z,-5
2022-12-12T03:24:29.289Z,-5
2022-12-12T03:25:31.305Z,-4.9
2022-12-12T03:26:33.514Z,-5
2022-12-12T03:27:36.299Z,-5
2022-12-12T03:28:39.283Z,-5
2022-12-12T03:29:42.284Z,-5
2022-12-12T03:30:44.287Z,-5.1
2022-12-12T03:31:46.416Z,-5.1
2022-12-12T03:32:48.288Z,-5.1
2022-12-12T03:33:50.299Z,-5.1
2022-12-12T03:34:52.295Z,-5.1
2022-12-12T03:35:54.292Z,-5.1
2022-12-12T03:36:56.308Z,-5.1
2022-12-12T03:37:59.294Z,-5.1
2022-12-12T03:39:01.294Z,-5.2
2022-12-12T03:40:03.317Z,-5.1
2022-12-12T03:41:05.300Z,-5.1
2022-12-12T03:42:07.291Z,-5.2
2022-12-12T03:43:09.299Z,-5.3
2022-12-12T03:44:11.293Z,-5.3
2022-12-12T03:45:13.741Z,-5.3
2022-12-12T03:46:15.390Z,-5.3
2022-12-12T03:47:17.300Z,-5.3
2022-12-12T03:48:20.294Z,-5.3
2022-12-12T03:49:23.312Z,-5.3
2022-12-12T03:50:40.284Z,-5.2
2022-12-12T03:51:27.298Z,-5.3
2022-12-12T03:52:29.296Z,-5.3
2022-12-12T03:53:31.308Z,-5.3
2022-12-12T03:54:33.303Z,-5.3
2022-12-12T03:55:36.318Z,-5.3
2022-12-12T03:56:40.306Z,-5.3
2022-12-12T03:58:44.302Z,-5.2
2022-12-12T03:59:46.306Z,-5.2
2022-12-12T04:00:48.390Z,-5.2
2022-12-12T04:01:50.369Z,-5.2
2022-12-12T04:02:52.308Z,-5.3
2022-12-12T04:03:54.305Z,-5.3
2022-12-12T04:04:56.305Z,-5.3
2022-12-12T04:05:58.353Z,-5.4
2022-12-12T04:07:00.334Z,-5.4
2022-12-12T04:08:02.338Z,-5.4
2022-12-12T04:09:04.316Z,-5.4
2022-12-12T04:10:06.329Z,-5.4
2022-12-12T04:11:08.343Z,-5.4
2022-12-12T04:12:10.318Z,-5.4
2022-12-12T04:13:12.311Z,-5.5
2022-12-12T04:14:14.311Z,-5.5
2022-12-12T04:15:17.315Z,-5.5
2022-12-12T04:16:19.393Z,-5.5
2022-12-12T04:17:22.324Z,-5.5
2022-12-12T04:18:24.314Z,-5.4
2022-12-12T04:19:26.322Z,-5.4
2022-12-12T04:20:28.316Z,-5.3
2022-12-12T04:21:30.324Z,-5.2
2022-12-12T04:22:33.309Z,-5.2
2022-12-12T04:23:36.341Z,-5.2
2022-12-12T04:24:39.323Z,-5.2
2022-12-12T04:25:41.365Z,-5.2
2022-12-12T04:26:43.328Z,-5.3
2022-12-12T04:27:58.184Z,-5.3
2022-12-12T04:28:47.320Z,-5.4
2022-12-12T04:29:49.328Z,-5.4
2022-12-12T04:30:51.534Z,-5.4
2022-12-12T04:31:53.353Z,-5.3
2022-12-12T04:32:55.336Z,-5.3
2022-12-12T04:33:58.328Z,-5.3
2022-12-12T04:35:00.352Z,-5.2
2022-12-12T04:36:02.365Z,-5.2
2022-12-12T04:37:04.328Z,-5.2
2022-12-12T04:38:06.340Z,-5.2
2022-12-12T04:39:08.333Z,-5.2
2022-12-12T04:40:10.338Z,-5.1
2022-12-12T04:41:12.342Z,-5.1
2022-12-12T04:42:14.336Z,-5.1
2022-12-12T04:43:17.334Z,-5.2
2022-12-12T04:44:19.338Z,-5.2
2022-12-12T04:45:21.328Z,-5.2
2022-12-12T04:46:23.335Z,-5.2
2022-12-12T04:47:25.334Z,-5.2
2022-12-12T04:48:27.333Z,-5.2
2022-12-12T04:49:29.336Z,-5.3
2022-12-12T04:50:31.362Z,-5.3
2022-12-12T04:51:33.360Z,-5.2
2022-12-12T04:52:36.359Z,-5.2
2022-12-12T04:53:40.351Z,-5.3
2022-12-12T04:54:42.347Z,-5.3
2022-12-12T04:55:44.356Z,-5.3
2022-12-12T04:56:46.342Z,-5.2
2022-12-12T04:57:48.336Z,-5.3
2022-12-12T04:58:50.339Z,-5.3
2022-12-12T04:59:52.351Z,-5.2
2022-12-12T05:00:54.422Z,-5.2
2022-12-12T05:01:56.348Z,-5.1
2022-12-12T05:02:58.356Z,-5.1
2022-12-12T05:04:00.341Z,-5.1
2022-12-12T05:05:02.352Z,-5.1
2022-12-12T05:06:04.367Z,-5.1
2022-12-12T05:07:06.353Z,-5.1
2022-12-12T05:08:08.392Z,-5.1
2022-12-12T05:09:10.352Z,-5.1
2022-12-12T05:10:12.343Z,-5.1
2022-12-12T05:11:14.354Z,-5.1
2022-12-12T05:12:16.355Z,-5.1
2022-12-12T05:13:19.355Z,-5.1
2022-12-12T05:14:21.347Z,-5.1
2022-12-12T05:15:23.352Z,-5.1
2022-12-12T05:16:25.403Z,-5.1
2022-12-12T05:17:27.349Z,-5.1
2022-12-12T05:19:31.378Z,-5.1
2022-12-12T05:20:33.366Z,-5.1
2022-12-12T05:21:36.367Z,-5.1
2022-12-12T05:22:39.361Z,-5
2022-12-12T05:23:42.371Z,-5.1
2022-12-12T05:24:44.361Z,-5.1
2022-12-12T05:26:08.554Z,-5.1
2022-12-12T05:27:08.527Z,-5
2022-12-12T05:28:08.533Z,-5.1
2022-12-12T05:29:08.534Z,-5
2022-12-12T05:30:08.529Z,-5
2022-12-12T05:31:08.574Z,-5
2022-12-12T05:32:08.542Z,-4.9
2022-12-12T05:33:08.582Z,-4.9
2022-12-12T05:34:08.535Z,-4.9
2022-12-12T05:35:08.538Z,-4.9
2022-12-12T05:36:08.545Z,-4.9
2022-12-12T05:37:08.577Z,-4.9
2022-12-12T05:38:10.371Z,-4.9
2022-12-12T05:39:13.368Z,-4.9
2022-12-12T05:40:15.371Z,-4.9
2022-12-12T05:41:17.372Z,-4.9
2022-12-12T05:42:19.376Z,-4.9
2022-12-12T05:43:21.368Z,-4.9
2022-12-12T05:44:23.372Z,-4.9
2022-12-12T05:45:26.379Z,-4.8
2022-12-12T05:46:28.499Z,-4.8
2022-12-12T05:47:30.374Z,-4.8
2022-12-12T05:48:32.399Z,-4.8
2022-12-12T05:49:36.422Z,-4.8
2022-12-12T05:50:39.359Z,-4.8
2022-12-12T05:51:41.420Z,-4.8
2022-12-12T05:52:43.379Z,-4.8
2022-12-12T05:53:45.378Z,-4.8
2022-12-12T05:54:47.385Z,-4.8
2022-12-12T05:55:49.419Z,-4.8
2022-12-12T05:56:51.421Z,-4.8
2022-12-12T05:57:54.389Z,-4.8
2022-12-12T05:58:56.385Z,-4.8
2022-12-12T05:59:58.395Z,-4.8
2022-12-12T06:01:03.328Z,-4.8
2022-12-12T06:02:02.507Z,-4.8
2022-12-12T06:03:04.387Z,-4.9
2022-12-12T06:04:06.433Z,-4.8
2022-12-12T06:05:08.411Z,-4.8
2022-12-12T06:06:10.387Z,-4.9
2022-12-12T06:07:12.411Z,-4.9
2022-12-12T06:08:15.468Z,-4.9
2022-12-12T06:09:17.392Z,-4.9
2022-12-12T06:10:19.392Z,-4.9
2022-12-12T06:11:21.385Z,-4.8
2022-12-12T06:12:23.409Z,-4.8
2022-12-12T06:13:25.390Z,-4.7
2022-12-12T06:14:27.408Z,-4.7
2022-12-12T06:15:29.432Z,-4.8
2022-12-12T06:16:31.422Z,-4.8
2022-12-12T06:17:33.712Z,-4.8
2022-12-12T06:18:36.414Z,-4.8
2022-12-12T06:19:39.444Z,-4.8
2022-12-12T06:20:41.447Z,-4.8
2022-12-12T06:21:43.396Z,-4.8
2022-12-12T06:22:49.106Z,-4.8
2022-12-12T06:23:47.405Z,-4.9
2022-12-12T06:24:49.436Z,-4.9
2022-12-12T06:25:51.403Z,-4.9
2022-12-12T06:26:53.395Z,-4.9
2022-12-12T06:27:55.403Z,-4.9
2022-12-12T06:28:57.399Z,-4.9
2022-12-12T06:29:59.442Z,-4.9
2022-12-12T06:31:04.561Z,-4.9
2022-12-12T06:32:04.394Z,-5
2022-12-12T06:33:06.398Z,-5
2022-12-12T06:34:08.401Z,-5
2022-12-12T06:35:10.660Z,-5
2022-12-12T06:36:12.398Z,-5.1
2022-12-12T06:37:17.320Z,-5
2022-12-12T06:38:16.424Z,-5.1
2022-12-12T06:39:18.398Z,-5.1
2022-12-12T06:40:20.402Z,-5.1
2022-12-12T06:41:22.406Z,-5.1
2022-12-12T06:42:24.417Z,-5.1
2022-12-12T06:43:26.436Z,-5.1
2022-12-12T06:44:28.416Z,-5.1
2022-12-12T06:45:30.406Z,-5.1
2022-12-12T06:46:32.474Z,-5.1
2022-12-12T06:47:34.413Z,-5
2022-12-12T06:48:36.440Z,-5
2022-12-12T06:49:40.420Z,-4.9
2022-12-12T06:50:42.431Z,-4.9
2022-12-12T06:51:44.650Z,-4.9
2022-12-12T06:53:08.590Z,-4.9
2022-12-12T06:54:08.605Z,-4.8
2022-12-12T06:55:08.651Z,-4.8
2022-12-12T06:56:08.587Z,-4.7
2022-12-12T06:57:08.582Z,-4.7
2022-12-12T06:58:08.585Z,-4.7
2022-12-12T06:59:08.603Z,-4.7
2022-12-12T07:00:08.588Z,-4.7
2022-12-12T07:01:08.612Z,-4.6
2022-12-12T07:02:08.601Z,-4.7
2022-12-12T07:03:08.631Z,-4.7
2022-12-12T07:04:08.674Z,-4.7
2022-12-12T07:05:10.794Z,-4.7
2022-12-12T07:06:12.426Z,-4.7
2022-12-12T07:07:14.424Z,-4.7
2022-12-12T07:08:16.492Z,-4.7
2022-12-12T07:09:18.458Z,-4.8
2022-12-12T07:10:21.534Z,-4.8
2022-12-12T07:11:23.430Z,-4.8
2022-12-12T07:12:25.434Z,-4.8
2022-12-12T07:13:27.430Z,-4.7
2022-12-12T07:14:29.434Z,-4.7
2022-12-12T07:15:31.455Z,-4.7
2022-12-12T07:16:33.436Z,-4.7
2022-12-12T07:17:36.438Z,-4.7
2022-12-12T07:18:40.430Z,-4.6
2022-12-12T07:19:43.431Z,-4.6
2022-12-12T07:20:45.476Z,-4.6
2022-12-12T07:21:47.431Z,-4.6
2022-12-12T07:22:49.430Z,-4.6
2022-12-12T07:24:00.097Z,-4.7
2022-12-12T07:24:54.095Z,-4.7
2022-12-12T07:25:56.107Z,-4.7
2022-12-12T07:26:58.089Z,-4.8
2022-12-12T07:28:00.090Z,-4.8
2022-12-12T07:29:02.102Z,-4.8
2022-12-12T07:30:04.095Z,-4.8
2022-12-12T07:31:06.182Z,-4.8
2022-12-12T07:32:08.100Z,-4.8
2022-12-12T07:33:10.120Z,-4.8
2022-12-12T07:34:12.095Z,-4.8
2022-12-12T07:35:14.549Z,-4.8
2022-12-12T07:36:16.100Z,-4.9
2022-12-12T07:37:22.279Z,-4.9
2022-12-12T07:38:20.101Z,-4.9
2022-12-12T07:43:16.209Z,-5.1
2022-12-12T07:43:16.684Z,-5.1
2022-12-12T07:44:18.583Z,-5
2022-12-12T07:45:20.988Z,-5.1
2022-12-12T07:46:22.676Z,-5.1
2022-12-12T07:47:24.588Z,-5.1
2022-12-12T07:48:26.662Z,-5.1
2022-12-12T07:50:30.636Z,-5.1
2022-12-12T07:51:32.668Z,-5
2022-12-12T07:52:34.609Z,-5
2022-12-12T07:53:36.601Z,-4.9
2022-12-12T07:54:38.594Z,-4.9
2022-12-12T07:55:40.589Z,-4.9
2022-12-12T07:56:42.591Z,-4.9
2022-12-12T07:57:44.584Z,-4.9
2022-12-12T07:58:46.588Z,-4.9
2022-12-12T07:59:48.581Z,-4.9
2022-12-12T08:00:50.590Z,-4.9
2022-12-12T08:01:52.630Z,-5
2022-12-12T08:02:54.636Z,-5
2022-12-12T08:03:56.634Z,-5
2022-12-12T08:04:58.690Z,-5
2022-12-12T08:06:00.630Z,-5.1
2022-12-12T08:07:08.122Z,-5.1
2022-12-12T08:08:05.636Z,-5.1
2022-12-12T08:09:07.591Z,-5.1
2022-12-12T08:10:09.620Z,-5.1
2022-12-12T08:11:11.784Z,-5.1
2022-12-12T08:12:13.594Z,-5.2
2022-12-12T08:13:15.610Z,-5.2
2022-12-12T08:14:19.598Z,-5.2
2022-12-12T08:15:21.640Z,-5.2
2022-12-12T08:16:23.824Z,-5.2
2022-12-12T08:17:25.609Z,-5.2
2022-12-12T08:18:27.595Z,-5.2
2022-12-12T08:19:29.594Z,-5.2
2022-12-12T08:20:31.643Z,-5.2
2022-12-12T08:21:33.597Z,-5.1
2022-12-12T08:22:35.652Z,-5.1
2022-12-12T08:23:37.623Z,-5.1
2022-12-12T08:24:39.602Z,-5.1
2022-12-12T08:25:41.636Z,-5.1
2022-12-12T08:26:43.598Z,-5.1
2022-12-12T08:27:45.637Z,-5.1
2022-12-12T08:28:47.664Z,-5.1
2022-12-12T08:29:49.609Z,-5.1
2022-12-12T08:30:51.824Z,-5.1
2022-12-12T08:31:53.642Z,-5.1
2022-12-12T08:32:55.630Z,-5
2022-12-12T08:33:57.620Z,-5
2022-12-12T08:34:59.631Z,-5
2022-12-12T08:36:01.609Z,-4.9
2022-12-12T08:37:03.686Z,-4.9
2022-12-12T08:39:07.605Z,-4.9
2022-12-12T08:40:09.799Z,-4.9
2022-12-12T08:41:11.795Z,-4.7
2022-12-12T08:42:13.616Z,-4.7
2022-12-12T08:43:15.634Z,-4.7
2022-12-12T08:44:19.623Z,-4.7
2022-12-12T08:45:21.656Z,-4.7
2022-12-12T08:46:23.715Z,-4.7
2022-12-12T08:47:25.612Z,-4.7
2022-12-12T08:48:27.610Z,-4.7
2022-12-12T08:49:29.615Z,-4.6
2022-12-12T08:50:31.622Z,-4.5
2022-12-12T08:51:33.660Z,-4.5
2022-12-12T08:52:35.627Z,-4.4
2022-12-12T08:53:37.657Z,-4.4
2022-12-12T08:54:39.629Z,-4.4
2022-12-12T08:55:41.621Z,-4.4
2022-12-12T08:56:43.781Z,-4.3
2022-12-12T08:57:45.622Z,-4.3
2022-12-12T08:58:47.630Z,-4.3
2022-12-12T08:59:49.622Z,-4.4
2022-12-12T09:00:51.618Z,-4.3
2022-12-12T09:01:53.760Z,-4.3
2022-12-12T09:02:55.774Z,-4.3
2022-12-12T09:03:57.650Z,-4.2
2022-12-12T09:05:00.621Z,-4.2
2022-12-12T09:06:02.621Z,-4.2
2022-12-12T09:07:08.458Z,-4.2
2022-12-12T09:08:06.682Z,-4.1
2022-12-12T09:09:08.630Z,-4
2022-12-12T09:10:10.633Z,-4
2022-12-12T09:11:12.630Z,-3.9
2022-12-12T09:13:18.646Z,-3.8
2022-12-12T09:14:20.633Z,-3.8
2022-12-12T09:15:22.621Z,-3.8
2022-12-12T09:16:24.680Z,-3.7
2022-12-12T09:17:26.636Z,-3.7
2022-12-12T09:18:28.632Z,-3.7
2022-12-12T09:19:30.632Z,-3.7
2022-12-12T09:20:32.642Z,-3.7
2022-12-12T09:21:35.634Z,-3.7
2022-12-12T09:22:37.645Z,-3.7
2022-12-12T09:23:39.825Z,-3.7
2022-12-12T09:24:41.641Z,-3.7
2022-12-12T09:25:43.643Z,-3.7
2022-12-12T09:26:45.640Z,-3.7
2022-12-12T09:27:47.640Z,-3.6
2022-12-12T09:28:49.644Z,-3.6
2022-12-12T09:29:51.636Z,-3.6
2022-12-12T09:30:53.640Z,-3.6
2022-12-12T09:31:55.675Z,-3.6
2022-12-12T09:32:57.642Z,-3.6
2022-12-12T09:33:59.639Z,-3.6
2022-12-12T09:35:01.642Z,-3.5
2022-12-12T09:36:03.676Z,-3.5
2022-12-12T09:37:05.647Z,-3.5
2022-12-12T09:38:12.554Z,-3.5
2022-12-12T09:39:09.705Z,-3.5
2022-12-12T09:40:12.430Z,-3.5
2022-12-12T09:41:13.668Z,-3.5
2022-12-12T09:42:15.671Z,-3.5
2022-12-12T09:43:18.662Z,-3.5
2022-12-12T09:44:20.650Z,-3.4
2022-12-12T09:45:22.713Z,-3.4
2022-12-12T09:46:24.660Z,-3.4
2022-12-12T09:47:26.649Z,-3.4
2022-12-12T09:48:28.698Z,-3.5
2022-12-12T09:49:30.655Z,-3.4
2022-12-12T09:50:32.647Z,-3.4
2022-12-12T09:51:34.668Z,-3.4
2022-12-12T09:52:36.662Z,-3.4
2022-12-12T09:53:38.653Z,-3.5
2022-12-12T09:54:40.664Z,-3.5
2022-12-12T09:55:42.675Z,-3.5
2022-12-12T09:56:44.663Z,-3.5
2022-12-12T09:57:46.658Z,-3.5
2022-12-12T09:58:51.399Z,-3.5
2022-12-12T09:59:50.658Z,-3.5
2022-12-12T10:00:52.786Z,-3.5
2022-12-12T10:01:54.717Z,-3.5
2022-12-12T10:02:56.682Z,-3.5
2022-12-12T10:03:58.669Z,-3.6
2022-12-12T10:05:00.665Z,-3.6
2022-12-12T10:06:35.497Z,-3.6
2022-12-12T10:08:06.774Z,-3.5
2022-12-12T10:09:11.540Z,-3.5
2022-12-12T10:10:12.044Z,-3.5
2022-12-12T10:11:12.712Z,-3.5
2022-12-12T10:12:15.676Z,-3.5
2022-12-12T10:13:19.653Z,-3.5
2022-12-12T10:14:21.688Z,-3.6
2022-12-12T10:15:23.732Z,-3.6
2022-12-12T10:16:25.735Z,-3.6
2022-12-12T10:17:27.684Z,-3.6
2022-12-12T10:18:29.673Z,-3.6
2022-12-12T10:19:32.673Z,-3.6
2022-12-12T10:20:34.733Z,-3.6
2022-12-12T10:21:36.723Z,-3.6
2022-12-12T10:22:38.693Z,-3.6
2022-12-12T10:23:40.675Z,-3.6
2022-12-12T10:24:42.665Z,-3.6
2022-12-12T10:25:44.722Z,-3.6
2022-12-12T10:26:46.716Z,-3.6
2022-12-12T10:27:48.687Z,-3.6
2022-12-12T10:28:50.685Z,-3.6
2022-12-12T10:29:52.726Z,-3.6
2022-12-12T10:30:55.885Z,-3.6
2022-12-12T10:31:57.778Z,-3.6
2022-12-12T10:32:59.682Z,-3.6
2022-12-12T10:34:01.912Z,-3.6
2022-12-12T10:35:03.689Z,-3.6
2022-12-12T10:36:05.723Z,-3.6
2022-12-12T10:38:09.685Z,-3.6
2022-12-12T10:39:11.864Z,-3.6
2022-12-12T10:40:13.705Z,-3.6
2022-12-12T10:41:15.719Z,-3.6
2022-12-12T10:42:18.685Z,-3.6
2022-12-12T10:43:20.688Z,-3.6
2022-12-12T10:44:22.728Z,-3.6
2022-12-12T10:46:11.779Z,-3.5
2022-12-12T10:47:11.604Z,-3.5
2022-12-12T10:48:11.561Z,-3.5
2022-12-12T10:49:11.557Z,-3.5
2022-12-12T10:50:13.306Z,-3.5
2022-12-12T10:51:11.588Z,-3.5
2022-12-12T10:52:11.562Z,-3.5
2022-12-12T10:53:11.576Z,-3.5
2022-12-12T10:54:11.565Z,-3.5
2022-12-12T10:55:11.912Z,-3.5
2022-12-12T10:56:11.574Z,-3.5
2022-12-12T10:57:18.044Z,-3.5
2022-12-12T10:58:11.572Z,-3.5
2022-12-12T10:59:11.572Z,-3.5
2022-12-12T11:00:11.651Z,-3.5
2022-12-12T11:01:11.609Z,-3.5
2022-12-12T11:02:11.597Z,-3.6
2022-12-12T11:03:11.665Z,-3.6
2022-12-12T11:04:11.577Z,-3.6
2022-12-12T11:05:12.287Z,-3.6
2022-12-12T11:06:11.578Z,-3.6
2022-12-12T11:07:11.585Z,-3.6
2022-12-12T11:08:11.629Z,-3.6
2022-12-12T11:09:11.885Z,-3.6
2022-12-12T11:10:15.759Z,-3.6
2022-12-12T11:11:19.709Z,-3.6
2022-12-12T11:12:21.705Z,-3.6
2022-12-12T11:13:23.712Z,-3.6
2022-12-12T11:14:25.716Z,-3.7
2022-12-12T11:15:27.886Z,-3.7
2022-12-12T11:16:29.856Z,-3.6
2022-12-12T11:17:31.738Z,-3.7
2022-12-12T11:18:33.708Z,-3.7
2022-12-12T11:19:35.724Z,-3.7
2022-12-12T11:20:37.764Z,-3.8
2022-12-12T11:21:39.711Z,-3.8
2022-12-12T11:22:41.723Z,-3.8
2022-12-12T11:23:43.710Z,-3.8
2022-12-12T11:24:45.713Z,-3.8
2022-12-12T11:25:47.748Z,-3.8
2022-12-12T11:26:49.709Z,-3.8
2022-12-12T11:27:51.721Z,-3.8
2022-12-12T11:28:53.719Z,-3.8
2022-12-12T11:29:55.748Z,-3.8
2022-12-12T11:30:57.795Z,-3.8
2022-12-12T11:31:59.775Z,-3.8
2022-12-12T11:33:01.712Z,-3.8
2022-12-12T11:34:03.726Z,-3.8
2022-12-12T11:35:05.725Z,-3.8
2022-12-12T11:36:07.814Z,-3.8
2022-12-12T11:37:09.731Z,-3.8
2022-12-12T11:39:13.723Z,-3.8
2022-12-12T11:40:15.823Z,-3.8
2022-12-12T11:41:17.782Z,-3.8
2022-12-12T11:42:19.721Z,-3.8
2022-12-12T11:43:21.727Z,-3.7
2022-12-12T11:44:23.731Z,-3.7
2022-12-12T11:45:25.733Z,-3.7
2022-12-12T11:46:27.771Z,-3.7
2022-12-12T11:47:29.732Z,-3.7
2022-12-12T11:48:31.730Z,-3.7
2022-12-12T11:49:33.729Z,-3.7
2022-12-12T11:50:35.734Z,-3.7
2022-12-12T11:51:37.786Z,-3.7
2022-12-12T11:52:39.735Z,-3.7
2022-12-12T11:53:41.734Z,-3.6
2022-12-12T11:54:43.739Z,-3.7
2022-12-12T11:55:46.729Z,-3.6
2022-12-12T11:57:50.731Z,-3.6
2022-12-12T11:58:52.736Z,-3.6
2022-12-12T11:59:54.746Z,-3.6
2022-12-12T12:00:56.738Z,-3.7
2022-12-12T12:01:58.741Z,-3.7
2022-12-12T12:03:00.783Z,-3.7
2022-12-12T12:04:02.843Z,-3.6
2022-12-12T12:05:04.734Z,-3.7
2022-12-12T12:06:06.733Z,-3.6
2022-12-12T12:07:09.792Z,-3.6
2022-12-12T12:08:11.959Z,-3.6
2022-12-12T12:09:13.739Z,-3.6
2022-12-12T12:10:19.644Z,-3.6
2022-12-12T12:11:19.791Z,-3.5
2022-12-12T12:12:21.740Z,-3.5
2022-12-12T12:13:23.742Z,-3.5
2022-12-12T12:14:25.742Z,-3.5
2022-12-12T12:15:27.745Z,-3.5
2022-12-12T12:16:29.982Z,-3.5
2022-12-12T12:17:31.746Z,-3.5
2022-12-12T12:18:34.782Z,-3.5
2022-12-12T12:19:36.755Z,-3.5
2022-12-12T12:20:38.749Z,-3.5
2022-12-12T12:21:40.926Z,-3.5
2022-12-12T12:22:42.751Z,-3.5
2022-12-12T12:23:50.074Z,-3.5
2022-12-12T12:24:46.754Z,-3.5
2022-12-12T12:26:02.337Z,-3.5
2022-12-12T12:26:51.180Z,-3.5
2022-12-12T12:27:52.753Z,-3.5
2022-12-12T12:28:54.766Z,-3.5
2022-12-12T12:29:56.793Z,-3.5
2022-12-12T12:30:58.821Z,-3.5
2022-12-12T12:32:00.760Z,-3.5
2022-12-12T12:33:02.755Z,-3.5
2022-12-12T12:34:04.748Z,-3.5
2022-12-12T12:35:06.789Z,-3.5
2022-12-12T12:36:08.818Z,-3.5
2022-12-12T12:37:10.768Z,-3.5
2022-12-12T12:38:12.762Z,-3.5
2022-12-12T12:39:15.775Z,-3.5
2022-12-12T12:40:17.770Z,-3.6
2022-12-12T12:41:19.802Z,-3.6
2022-12-12T12:43:23.767Z,-3.5
2022-12-12T12:44:25.764Z,-3.5
2022-12-12T12:45:27.772Z,-3.5
2022-12-12T12:46:29.839Z,-3.5
2022-12-12T12:47:31.765Z,-3.5
2022-12-12T12:48:33.823Z,-3.5
2022-12-12T12:50:11.945Z,-3.5
2022-12-12T12:51:11.654Z,-3.5
2022-12-12T12:52:11.657Z,-3.5
2022-12-12T12:54:11.637Z,-3.5
2022-12-12T12:55:12.022Z,-3.5
2022-12-12T12:56:11.865Z,-3.4
2022-12-12T12:57:11.645Z,-3.5
2022-12-12T12:58:11.651Z,-3.5
2022-12-12T12:59:11.654Z,-3.5
2022-12-12T13:00:11.973Z,-3.5
2022-12-12T13:02:14.449Z,-3.5
2022-12-12T13:03:11.664Z,-3.4
2022-12-12T13:04:11.668Z,-3.4
2022-12-12T13:06:11.549Z,-3.5
2022-12-12T13:07:11.543Z,-3.5
2022-12-12T13:09:15.857Z,-3.5
2022-12-12T13:10:18.638Z,-3.5
2022-12-12T13:11:20.643Z,-3.5
2022-12-12T13:12:22.649Z,-3.5
2022-12-12T13:13:24.660Z,-3.5
2022-12-12T13:14:29.931Z,-3.5
2022-12-12T13:15:28.748Z,-3.6
2022-12-12T13:16:30.646Z,-3.5
2022-12-12T13:18:45.102Z,-3.5
2022-12-12T13:19:36.696Z,-3.4
2022-12-12T13:22:42.645Z,-3.4
2022-12-12T13:23:44.655Z,-3.4
2022-12-12T13:24:46.728Z,-3.4
2022-12-12T13:25:48.646Z,-3.4
2022-12-12T13:26:50.644Z,-3.4
2022-12-12T13:28:11.655Z,-3.4
2022-12-12T13:29:11.657Z,-3.4
2022-12-12T13:30:12.061Z,-3.4
2022-12-12T13:34:11.662Z,-3.5
2022-12-12T13:35:12.391Z,-3.5
2022-12-12T13:36:11.679Z,-3.5
2022-12-12T13:37:11.671Z,-3.5
2022-12-12T13:39:15.674Z,-3.5
2022-12-12T13:40:18.707Z,-3.5
2022-12-12T13:41:20.658Z,-3.5
2022-12-12T13:42:26.479Z,-3.5
2022-12-12T13:43:24.677Z,-3.6
2022-12-12T13:44:26.659Z,-3.6
2022-12-12T13:45:28.696Z,-3.6
2022-12-12T13:46:30.775Z,-3.6
2022-12-12T13:47:32.675Z,-3.6
2022-12-12T13:48:34.677Z,-3.6
2022-12-12T13:50:24.041Z,-3.6
2022-12-12T13:50:50.356Z,-3.6
2022-12-12T13:51:52.321Z,-3.6
2022-12-12T13:52:54.337Z,-3.5
2022-12-12T13:53:56.333Z,-3.5
2022-12-12T13:54:58.339Z,-3.5
2022-12-12T13:56:00.386Z,-3.5
2022-12-12T13:58:11.519Z,-3.4
2022-12-12T14:00:16.851Z,-3.5
2022-12-12T14:02:22.418Z,-3.5
2022-12-12T14:04:11.687Z,-3.5
2022-12-12T14:05:11.703Z,-3.5
2022-12-12T14:06:30.457Z,-3.5
2022-12-12T14:07:32.397Z,-3.5
2022-12-12T14:09:47.785Z,-3.4
2022-12-12T14:10:38.412Z,-3.4
2022-12-12T14:11:40.514Z,-3.4
2022-12-12T14:12:42.430Z,-3.4
2022-12-12T14:13:45.411Z,-3.4
2022-12-12T14:15:49.496Z,-3.4
2022-12-12T14:16:51.426Z,-3.4
2022-12-12T14:18:11.692Z,-3.4
2022-12-12T14:19:11.712Z,-3.4
2022-12-12T14:22:11.691Z,-3.4
2022-12-12T14:23:12.956Z,-3.4
2022-12-12T14:24:15.892Z,-3.4
2022-12-12T14:25:32.408Z,-3.4